sensor_id;sensor_type;location;lat;lon;timestamp;P1;durP1;ratioP1;P2;durP2;ratioP2
39196;SDS011;42889;51.112;13.772;2022-08-19T00:01:22;12.65;;;10.43;;
39196;SDS011;42889;51.112;13.772;2022-08-19T00:03:56;13.82;;;10.10;;
39196;SDS011;42889;51.112;13.772;2022-08-19T00:06:25;12.85;;;10.23;;
39196;SDS011;42889;51.112;13.772;2022-08-19T00:08:52;12.85;;;10.57;;
39196;SDS011;42889;51.112;13.772;2022-08-19T00:11:18;13.70;;;10.57;;
39196;SDS011;42889;51.112;13.772;2022-08-19T00:13:51;13.30;;;10.50;;
39196;SDS011;42889;51.112;13.772;2022-08-19T00:16:18;12.20;;;10.65;;
39196;SDS011;42889;51.112;13.772;2022-08-19T00:18:51;14.48;;;10.75;;
39196;SDS011;42889;51.112;13.772;2022-08-19T00:21:18;12.80;;;10.38;;
39196;SDS011;42889;51.112;13.772;2022-08-19T00:23:44;13.35;;;11.10;;
39196;SDS011;42889;51.112;13.772;2022-08-19T00:26:11;14.88;;;11.05;;
39196;SDS011;42889;51.112;13.772;2022-08-19T00:28:38;14.13;;;11.23;;
39196;SDS011;42889;51.112;13.772;2022-08-19T00:31:05;13.15;;;11.40;;
39196;SDS011;42889;51.112;13.772;2022-08-19T00:33:33;15.38;;;11.80;;
39196;SDS011;42889;51.112;13.772;2022-08-19T00:36:00;17.08;;;12.55;;
39196;SDS011;42889;51.112;13.772;2022-08-19T00:38:30;13.95;;;12.27;;
39196;SDS011;42889;51.112;13.772;2022-08-19T00:41:03;13.00;;;11.00;;
39196;SDS011;42889;51.112;13.772;2022-08-19T00:43:31;14.00;;;11.30;;
39196;SDS011;42889;51.112;13.772;2022-08-19T00:45:57;13.48;;;11.48;;
39196;SDS011;42889;51.112;13.772;2022-08-19T00:48:24;16.58;;;12.02;;
39196;SDS011;42889;51.112;13.772;2022-08-19T00:50:52;15.05;;;12.02;;
39196;SDS011;42889;51.112;13.772;2022-08-19T00:53:21;14.52;;;12.65;;
39196;SDS011;42889;51.112;13.772;2022-08-19T00:55:50;15.20;;;12.95;;
39196;SDS011;42889;51.112;13.772;2022-08-19T00:58:21;14.13;;;11.82;;
39196;SDS011;42889;51.112;13.772;2022-08-19T01:00:53;17.23;;;13.00;;
39196;SDS011;42889;51.112;13.772;2022-08-19T01:03:20;16.70;;;13.00;;
39196;SDS011;42889;51.112;13.772;2022-08-19T01:05:49;14.73;;;13.00;;
39196;SDS011;42889;51.112;13.772;2022-08-19T01:08:18;15.77;;;12.73;;
39196;SDS011;42889;51.112;13.772;2022-08-19T01:10:50;15.05;;;12.85;;
39196;SDS011;42889;51.112;13.772;2022-08-19T01:13:21;15.73;;;13.63;;
39196;SDS011;42889;51.112;13.772;2022-08-19T01:15:59;17.10;;;14.32;;
39196;SDS011;42889;51.112;13.772;2022-08-19T01:18:28;19.58;;;14.98;;
39196;SDS011;42889;51.112;13.772;2022-08-19T01:23:44;17.67;;;15.00;;
39196;SDS011;42889;51.112;13.772;2022-08-19T01:26:13;19.38;;;15.25;;
39196;SDS011;42889;51.112;13.772;2022-08-19T01:28:45;17.90;;;15.30;;
39196;SDS011;42889;51.112;13.772;2022-08-19T01:31:21;20.25;;;14.98;;
39196;SDS011;42889;51.112;13.772;2022-08-19T01:33:54;17.45;;;14.88;;
39196;SDS011;42889;51.112;13.772;2022-08-19T01:36:27;19.83;;;15.35;;
39196;SDS011;42889;51.112;13.772;2022-08-19T01:41:32;18.33;;;15.65;;
39196;SDS011;42889;51.112;13.772;2022-08-19T01:43:58;17.80;;;15.73;;
39196;SDS011;42889;51.112;13.772;2022-08-19T01:46:44;17.77;;;15.45;;
39196;SDS011;42889;51.112;13.772;2022-08-19T01:49:13;16.80;;;15.00;;
39196;SDS011;42889;51.112;13.772;2022-08-19T01:51:40;20.38;;;15.77;;
39196;SDS011;42889;51.112;13.772;2022-08-19T01:54:07;17.83;;;15.55;;
39196;SDS011;42889;51.112;13.772;2022-08-19T01:56:35;18.88;;;15.18;;
39196;SDS011;42889;51.112;13.772;2022-08-19T01:59:04;19.15;;;15.57;;
39196;SDS011;42889;51.112;13.772;2022-08-19T02:01:43;19.33;;;15.65;;
39196;SDS011;42889;51.112;13.772;2022-08-19T02:04:10;18.98;;;15.02;;
39196;SDS011;42889;51.112;13.772;2022-08-19T02:06:37;16.65;;;14.90;;
39196;SDS011;42889;51.112;13.772;2022-08-19T02:09:05;19.52;;;16.05;;
39196;SDS011;42889;51.112;13.772;2022-08-19T02:11:33;17.08;;;14.85;;
39196;SDS011;42889;51.112;13.772;2022-08-19T02:14:02;18.58;;;15.50;;
39196;SDS011;42889;51.112;13.772;2022-08-19T02:16:32;18.67;;;16.08;;
39196;SDS011;42889;51.112;13.772;2022-08-19T02:18:58;17.90;;;15.85;;
39196;SDS011;42889;51.112;13.772;2022-08-19T02:21:27;17.63;;;15.57;;
39196;SDS011;42889;51.112;13.772;2022-08-19T02:23:55;18.73;;;16.25;;
39196;SDS011;42889;51.112;13.772;2022-08-19T02:26:22;21.30;;;16.98;;
39196;SDS011;42889;51.112;13.772;2022-08-19T02:28:49;17.90;;;15.65;;
39196;SDS011;42889;51.112;13.772;2022-08-19T02:31:17;22.13;;;16.52;;
39196;SDS011;42889;51.112;13.772;2022-08-19T02:33:46;19.88;;;15.60;;
39196;SDS011;42889;51.112;13.772;2022-08-19T02:36:14;20.10;;;16.67;;
39196;SDS011;42889;51.112;13.772;2022-08-19T02:38:45;19.65;;;16.15;;
39196;SDS011;42889;51.112;13.772;2022-08-19T02:43:52;17.85;;;15.95;;
39196;SDS011;42889;51.112;13.772;2022-08-19T02:46:40;18.45;;;16.35;;
39196;SDS011;42889;51.112;13.772;2022-08-19T02:49:07;22.75;;;16.15;;
39196;SDS011;42889;51.112;13.772;2022-08-19T02:51:35;19.95;;;15.70;;
39196;SDS011;42889;51.112;13.772;2022-08-19T02:54:03;17.88;;;15.27;;
39196;SDS011;42889;51.112;13.772;2022-08-19T02:56:31;20.38;;;16.95;;
39196;SDS011;42889;51.112;13.772;2022-08-19T02:58:59;20.77;;;16.00;;
39196;SDS011;42889;51.112;13.772;2022-08-19T03:01:28;20.80;;;16.95;;
39196;SDS011;42889;51.112;13.772;2022-08-19T03:03:57;17.83;;;15.77;;
39196;SDS011;42889;51.112;13.772;2022-08-19T03:06:26;18.10;;;16.20;;
39196;SDS011;42889;51.112;13.772;2022-08-19T03:08:53;20.55;;;15.90;;
39196;SDS011;42889;51.112;13.772;2022-08-19T03:13:56;21.05;;;16.63;;
39196;SDS011;42889;51.112;13.772;2022-08-19T03:16:24;18.13;;;16.00;;
39196;SDS011;42889;51.112;13.772;2022-08-19T03:18:52;18.27;;;16.00;;
39196;SDS011;42889;51.112;13.772;2022-08-19T03:21:21;17.83;;;15.73;;
39196;SDS011;42889;51.112;13.772;2022-08-19T03:24:03;19.52;;;16.83;;
39196;SDS011;42889;51.112;13.772;2022-08-19T03:26:32;19.40;;;16.95;;
39196;SDS011;42889;51.112;13.772;2022-08-19T03:29:03;19.30;;;16.38;;
39196;SDS011;42889;51.112;13.772;2022-08-19T03:31:31;19.27;;;17.00;;
39196;SDS011;42889;51.112;13.772;2022-08-19T03:34:19;19.40;;;16.00;;
39196;SDS011;42889;51.112;13.772;2022-08-19T03:36:55;20.90;;;18.08;;
39196;SDS011;42889;51.112;13.772;2022-08-19T03:39:24;20.60;;;17.83;;
39196;SDS011;42889;51.112;13.772;2022-08-19T03:41:52;20.23;;;17.90;;
39196;SDS011;42889;51.112;13.772;2022-08-19T03:44:43;20.38;;;17.52;;
39196;SDS011;42889;51.112;13.772;2022-08-19T03:47:11;20.88;;;18.67;;
39196;SDS011;42889;51.112;13.772;2022-08-19T03:49:42;22.83;;;18.35;;
39196;SDS011;42889;51.112;13.772;2022-08-19T03:52:09;22.15;;;18.15;;
39196;SDS011;42889;51.112;13.772;2022-08-19T03:54:36;22.63;;;18.77;;
39196;SDS011;42889;51.112;13.772;2022-08-19T03:57:04;21.17;;;18.35;;
39196;SDS011;42889;51.112;13.772;2022-08-19T03:59:32;20.25;;;18.08;;
39196;SDS011;42889;51.112;13.772;2022-08-19T04:04:31;20.90;;;17.67;;
39196;SDS011;42889;51.112;13.772;2022-08-19T04:06:57;20.02;;;17.83;;
39196;SDS011;42889;51.112;13.772;2022-08-19T04:09:24;21.73;;;18.33;;
39196;SDS011;42889;51.112;13.772;2022-08-19T04:11:52;20.80;;;18.20;;
39196;SDS011;42889;51.112;13.772;2022-08-19T04:14:21;21.52;;;17.55;;
39196;SDS011;42889;51.112;13.772;2022-08-19T04:16:50;20.90;;;17.80;;
39196;SDS011;42889;51.112;13.772;2022-08-19T04:19:18;19.00;;;17.00;;
39196;SDS011;42889;51.112;13.772;2022-08-19T04:21:46;20.80;;;17.25;;
39196;SDS011;42889;51.112;13.772;2022-08-19T04:24:14;20.00;;;17.83;;
39196;SDS011;42889;51.112;13.772;2022-08-19T04:26:42;19.30;;;17.13;;
39196;SDS011;42889;51.112;13.772;2022-08-19T04:29:10;21.45;;;17.70;;
39196;SDS011;42889;51.112;13.772;2022-08-19T04:31:43;20.77;;;17.45;;
39196;SDS011;42889;51.112;13.772;2022-08-19T04:34:11;20.67;;;16.88;;
39196;SDS011;42889;51.112;13.772;2022-08-19T04:36:40;22.02;;;18.15;;
39196;SDS011;42889;51.112;13.772;2022-08-19T04:39:12;20.75;;;17.45;;
39196;SDS011;42889;51.112;13.772;2022-08-19T04:41:42;18.77;;;16.75;;
39196;SDS011;42889;51.112;13.772;2022-08-19T04:44:29;23.15;;;18.88;;
39196;SDS011;42889;51.112;13.772;2022-08-19T04:46:58;20.60;;;17.90;;
39196;SDS011;42889;51.112;13.772;2022-08-19T04:49:26;20.65;;;17.98;;
39196;SDS011;42889;51.112;13.772;2022-08-19T04:51:53;20.70;;;17.55;;
39196;SDS011;42889;51.112;13.772;2022-08-19T04:54:22;20.50;;;17.10;;
39196;SDS011;42889;51.112;13.772;2022-08-19T04:57:04;19.10;;;16.98;;
39196;SDS011;42889;51.112;13.772;2022-08-19T05:02:02;18.45;;;16.38;;
39196;SDS011;42889;51.112;13.772;2022-08-19T05:04:29;20.63;;;17.33;;
39196;SDS011;42889;51.112;13.772;2022-08-19T05:06:59;20.13;;;16.83;;
39196;SDS011;42889;51.112;13.772;2022-08-19T05:09:29;19.92;;;15.57;;
39196;SDS011;42889;51.112;13.772;2022-08-19T05:12:18;18.60;;;16.60;;
39196;SDS011;42889;51.112;13.772;2022-08-19T05:14:45;20.13;;;16.40;;
39196;SDS011;42889;51.112;13.772;2022-08-19T05:17:13;23.23;;;17.33;;
39196;SDS011;42889;51.112;13.772;2022-08-19T05:20:00;19.17;;;16.85;;
39196;SDS011;42889;51.112;13.772;2022-08-19T05:22:46;19.52;;;16.40;;
39196;SDS011;42889;51.112;13.772;2022-08-19T05:25:18;21.13;;;17.15;;
39196;SDS011;42889;51.112;13.772;2022-08-19T05:27:46;22.30;;;17.42;;
39196;SDS011;42889;51.112;13.772;2022-08-19T05:30:13;22.33;;;17.85;;
39196;SDS011;42889;51.112;13.772;2022-08-19T05:32:41;22.08;;;17.23;;
39196;SDS011;42889;51.112;13.772;2022-08-19T05:35:09;22.40;;;17.20;;
39196;SDS011;42889;51.112;13.772;2022-08-19T05:37:36;20.85;;;16.90;;
39196;SDS011;42889;51.112;13.772;2022-08-19T05:40:05;22.00;;;17.40;;
39196;SDS011;42889;51.112;13.772;2022-08-19T05:42:32;19.38;;;17.15;;
39196;SDS011;42889;51.112;13.772;2022-08-19T05:44:58;23.33;;;18.20;;
39196;SDS011;42889;51.112;13.772;2022-08-19T05:47:25;20.77;;;17.90;;
39196;SDS011;42889;51.112;13.772;2022-08-19T05:49:52;22.30;;;19.15;;
39196;SDS011;42889;51.112;13.772;2022-08-19T05:52:18;24.75;;;18.60;;
39196;SDS011;42889;51.112;13.772;2022-08-19T05:54:51;27.58;;;17.65;;
39196;SDS011;42889;51.112;13.772;2022-08-19T05:57:21;23.02;;;18.40;;
39196;SDS011;42889;51.112;13.772;2022-08-19T05:59:48;23.58;;;18.05;;
39196;SDS011;42889;51.112;13.772;2022-08-19T06:02:23;21.45;;;17.02;;
39196;SDS011;42889;51.112;13.772;2022-08-19T06:04:51;22.05;;;17.45;;
39196;SDS011;42889;51.112;13.772;2022-08-19T06:07:17;21.70;;;17.15;;
39196;SDS011;42889;51.112;13.772;2022-08-19T06:09:45;22.02;;;17.70;;
39196;SDS011;42889;51.112;13.772;2022-08-19T06:12:25;23.42;;;17.77;;
39196;SDS011;42889;51.112;13.772;2022-08-19T06:14:58;18.23;;;16.20;;
39196;SDS011;42889;51.112;13.772;2022-08-19T06:17:26;21.55;;;16.38;;
39196;SDS011;42889;51.112;13.772;2022-08-19T06:19:56;18.77;;;15.55;;
39196;SDS011;42889;51.112;13.772;2022-08-19T06:22:24;17.23;;;14.65;;
39196;SDS011;42889;51.112;13.772;2022-08-19T06:24:51;16.33;;;14.05;;
39196;SDS011;42889;51.112;13.772;2022-08-19T06:27:20;17.20;;;13.45;;
39196;SDS011;42889;51.112;13.772;2022-08-19T06:29:50;15.95;;;12.63;;
39196;SDS011;42889;51.112;13.772;2022-08-19T06:32:17;15.77;;;12.50;;
39196;SDS011;42889;51.112;13.772;2022-08-19T06:34:45;15.65;;;12.20;;
39196;SDS011;42889;51.112;13.772;2022-08-19T06:37:11;14.63;;;12.70;;
39196;SDS011;42889;51.112;13.772;2022-08-19T06:39:40;13.50;;;12.10;;
39196;SDS011;42889;51.112;13.772;2022-08-19T06:42:08;15.63;;;12.40;;
39196;SDS011;42889;51.112;13.772;2022-08-19T06:44:38;15.07;;;11.88;;
39196;SDS011;42889;51.112;13.772;2022-08-19T06:47:09;14.70;;;12.30;;
39196;SDS011;42889;51.112;13.772;2022-08-19T06:49:40;16.52;;;12.38;;
39196;SDS011;42889;51.112;13.772;2022-08-19T06:52:07;15.95;;;12.55;;
39196;SDS011;42889;51.112;13.772;2022-08-19T06:54:39;15.32;;;12.23;;
39196;SDS011;42889;51.112;13.772;2022-08-19T06:57:22;16.70;;;12.82;;
39196;SDS011;42889;51.112;13.772;2022-08-19T06:59:50;15.15;;;12.90;;
39196;SDS011;42889;51.112;13.772;2022-08-19T07:02:17;14.73;;;12.60;;
39196;SDS011;42889;51.112;13.772;2022-08-19T07:04:43;16.05;;;14.00;;
39196;SDS011;42889;51.112;13.772;2022-08-19T07:07:13;17.92;;;14.55;;
39196;SDS011;42889;51.112;13.772;2022-08-19T07:09:46;17.33;;;14.38;;
39196;SDS011;42889;51.112;13.772;2022-08-19T07:12:25;19.40;;;15.15;;
39196;SDS011;42889;51.112;13.772;2022-08-19T07:14:55;20.25;;;16.45;;
39196;SDS011;42889;51.112;13.772;2022-08-19T07:17:23;20.67;;;16.88;;
39196;SDS011;42889;51.112;13.772;2022-08-19T07:19:50;21.63;;;17.13;;
39196;SDS011;42889;51.112;13.772;2022-08-19T07:22:19;24.52;;;17.63;;
39196;SDS011;42889;51.112;13.772;2022-08-19T07:24:49;21.40;;;17.83;;
39196;SDS011;42889;51.112;13.772;2022-08-19T07:27:17;23.90;;;18.73;;
39196;SDS011;42889;51.112;13.772;2022-08-19T07:29:50;26.45;;;19.63;;
39196;SDS011;42889;51.112;13.772;2022-08-19T07:32:23;24.60;;;20.17;;
39196;SDS011;42889;51.112;13.772;2022-08-19T07:34:52;21.73;;;17.67;;
39196;SDS011;42889;51.112;13.772;2022-08-19T07:37:19;24.85;;;20.23;;
39196;SDS011;42889;51.112;13.772;2022-08-19T07:39:46;25.98;;;19.85;;
39196;SDS011;42889;51.112;13.772;2022-08-19T07:42:12;23.65;;;19.55;;
39196;SDS011;42889;51.112;13.772;2022-08-19T07:44:40;25.35;;;19.45;;
39196;SDS011;42889;51.112;13.772;2022-08-19T07:47:15;22.48;;;18.23;;
39196;SDS011;42889;51.112;13.772;2022-08-19T07:50:03;23.02;;;18.42;;
39196;SDS011;42889;51.112;13.772;2022-08-19T07:52:33;24.80;;;19.27;;
39196;SDS011;42889;51.112;13.772;2022-08-19T07:55:00;22.88;;;18.48;;
39196;SDS011;42889;51.112;13.772;2022-08-19T07:57:29;22.60;;;18.85;;
39196;SDS011;42889;51.112;13.772;2022-08-19T07:59:56;24.42;;;17.20;;
39196;SDS011;42889;51.112;13.772;2022-08-19T08:02:22;22.52;;;18.27;;
39196;SDS011;42889;51.112;13.772;2022-08-19T08:04:49;23.13;;;19.33;;
39196;SDS011;42889;51.112;13.772;2022-08-19T08:07:34;22.55;;;18.35;;
39196;SDS011;42889;51.112;13.772;2022-08-19T08:10:20;23.45;;;17.98;;
39196;SDS011;42889;51.112;13.772;2022-08-19T08:12:49;22.85;;;18.83;;
39196;SDS011;42889;51.112;13.772;2022-08-19T08:15:36;20.55;;;17.45;;
39196;SDS011;42889;51.112;13.772;2022-08-19T08:18:09;19.90;;;17.13;;
39196;SDS011;42889;51.112;13.772;2022-08-19T08:20:37;21.33;;;17.45;;
39196;SDS011;42889;51.112;13.772;2022-08-19T08:23:04;23.10;;;17.65;;
39196;SDS011;42889;51.112;13.772;2022-08-19T08:25:49;19.20;;;16.83;;
39196;SDS011;42889;51.112;13.772;2022-08-19T08:28:16;20.15;;;16.58;;
39196;SDS011;42889;51.112;13.772;2022-08-19T08:30:44;20.10;;;17.15;;
39196;SDS011;42889;51.112;13.772;2022-08-19T08:33:17;21.13;;;17.70;;
39196;SDS011;42889;51.112;13.772;2022-08-19T08:36:09;20.63;;;17.88;;
39196;SDS011;42889;51.112;13.772;2022-08-19T08:38:37;20.77;;;17.52;;
39196;SDS011;42889;51.112;13.772;2022-08-19T08:41:09;21.95;;;18.05;;
39196;SDS011;42889;51.112;13.772;2022-08-19T08:43:38;21.65;;;18.23;;
39196;SDS011;42889;51.112;13.772;2022-08-19T08:46:20;22.30;;;17.45;;
39196;SDS011;42889;51.112;13.772;2022-08-19T08:51:37;20.73;;;18.17;;
39196;SDS011;42889;51.112;13.772;2022-08-19T08:54:09;21.27;;;18.13;;
39196;SDS011;42889;51.112;13.772;2022-08-19T08:56:38;24.23;;;18.38;;
39196;SDS011;42889;51.112;13.772;2022-08-19T08:59:07;20.85;;;17.20;;
39196;SDS011;42889;51.112;13.772;2022-08-19T09:01:43;22.25;;;17.92;;
39196;SDS011;42889;51.112;13.772;2022-08-19T09:04:09;20.08;;;16.65;;
39196;SDS011;42889;51.112;13.772;2022-08-19T09:09:17;19.38;;;16.80;;
39196;SDS011;42889;51.112;13.772;2022-08-19T09:14:53;18.15;;;15.27;;
39196;SDS011;42889;51.112;13.772;2022-08-19T09:17:25;19.65;;;15.02;;
39196;SDS011;42889;51.112;13.772;2022-08-19T09:20:19;18.70;;;14.40;;
39196;SDS011;42889;51.112;13.772;2022-08-19T09:22:51;20.15;;;14.25;;
39196;SDS011;42889;51.112;13.772;2022-08-19T09:25:19;16.23;;;14.48;;
39196;SDS011;42889;51.112;13.772;2022-08-19T09:27:54;15.43;;;13.80;;
39196;SDS011;42889;51.112;13.772;2022-08-19T09:30:29;16.75;;;14.75;;
39196;SDS011;42889;51.112;13.772;2022-08-19T09:32:58;17.20;;;14.35;;
39196;SDS011;42889;51.112;13.772;2022-08-19T09:35:27;16.90;;;13.77;;
39196;SDS011;42889;51.112;13.772;2022-08-19T09:37:56;18.67;;;14.93;;
39196;SDS011;42889;51.112;13.772;2022-08-19T09:40:25;17.45;;;14.07;;
39196;SDS011;42889;51.112;13.772;2022-08-19T09:45:23;17.38;;;14.73;;
39196;SDS011;42889;51.112;13.772;2022-08-19T09:47:50;16.42;;;14.27;;
39196;SDS011;42889;51.112;13.772;2022-08-19T09:50:20;14.90;;;13.32;;
39196;SDS011;42889;51.112;13.772;2022-08-19T09:52:48;15.23;;;12.27;;
39196;SDS011;42889;51.112;13.772;2022-08-19T09:55:22;15.30;;;12.98;;
39196;SDS011;42889;51.112;13.772;2022-08-19T09:57:57;14.02;;;12.20;;
39196;SDS011;42889;51.112;13.772;2022-08-19T10:00:24;14.60;;;12.60;;
39196;SDS011;42889;51.112;13.772;2022-08-19T10:02:51;14.07;;;11.82;;
39196;SDS011;42889;51.112;13.772;2022-08-19T10:05:18;14.15;;;12.57;;
39196;SDS011;42889;51.112;13.772;2022-08-19T10:08:07;13.38;;;11.63;;
39196;SDS011;42889;51.112;13.772;2022-08-19T10:10:40;14.18;;;12.55;;
39196;SDS011;42889;51.112;13.772;2022-08-19T10:13:12;13.82;;;12.05;;
39196;SDS011;42889;51.112;13.772;2022-08-19T10:15:40;16.45;;;12.38;;
39196;SDS011;42889;51.112;13.772;2022-08-19T10:18:13;12.90;;;11.25;;
39196;SDS011;42889;51.112;13.772;2022-08-19T10:20:40;12.00;;;10.77;;
39196;SDS011;42889;51.112;13.772;2022-08-19T10:23:08;12.85;;;11.05;;
39196;SDS011;42889;51.112;13.772;2022-08-19T10:25:35;13.43;;;11.30;;
39196;SDS011;42889;51.112;13.772;2022-08-19T10:28:03;11.57;;;10.38;;
39196;SDS011;42889;51.112;13.772;2022-08-19T10:30:35;12.43;;;10.90;;
39196;SDS011;42889;51.112;13.772;2022-08-19T10:33:03;14.50;;;11.05;;
39196;SDS011;42889;51.112;13.772;2022-08-19T10:35:36;13.25;;;10.85;;
39196;SDS011;42889;51.112;13.772;2022-08-19T10:38:21;11.98;;;10.02;;
39196;SDS011;42889;51.112;13.772;2022-08-19T10:40:57;13.13;;;10.45;;
39196;SDS011;42889;51.112;13.772;2022-08-19T10:43:24;12.90;;;9.93;;
39196;SDS011;42889;51.112;13.772;2022-08-19T10:45:54;10.57;;;9.13;;
39196;SDS011;42889;51.112;13.772;2022-08-19T10:48:28;11.00;;;9.38;;
39196;SDS011;42889;51.112;13.772;2022-08-19T10:50:56;11.10;;;9.20;;
39196;SDS011;42889;51.112;13.772;2022-08-19T10:53:48;10.18;;;8.90;;
39196;SDS011;42889;51.112;13.772;2022-08-19T10:56:16;10.70;;;8.98;;
39196;SDS011;42889;51.112;13.772;2022-08-19T10:59:02;11.48;;;8.85;;
39196;SDS011;42889;51.112;13.772;2022-08-19T11:01:30;10.65;;;8.35;;
39196;SDS011;42889;51.112;13.772;2022-08-19T11:04:00;11.00;;;8.65;;
39196;SDS011;42889;51.112;13.772;2022-08-19T11:06:27;11.50;;;9.18;;
39196;SDS011;42889;51.112;13.772;2022-08-19T11:08:54;11.93;;;9.70;;
39196;SDS011;42889;51.112;13.772;2022-08-19T11:11:21;11.13;;;9.05;;
39196;SDS011;42889;51.112;13.772;2022-08-19T11:13:48;9.70;;;8.43;;
39196;SDS011;42889;51.112;13.772;2022-08-19T11:16:17;9.63;;;8.63;;
39196;SDS011;42889;51.112;13.772;2022-08-19T11:18:52;11.23;;;9.93;;
39196;SDS011;42889;51.112;13.772;2022-08-19T11:21:29;14.50;;;10.48;;
39196;SDS011;42889;51.112;13.772;2022-08-19T11:24:00;13.85;;;11.65;;
39196;SDS011;42889;51.112;13.772;2022-08-19T11:26:29;14.80;;;11.57;;
39196;SDS011;42889;51.112;13.772;2022-08-19T11:28:57;13.07;;;10.57;;
39196;SDS011;42889;51.112;13.772;2022-08-19T11:31:26;12.23;;;10.93;;
39196;SDS011;42889;51.112;13.772;2022-08-19T11:33:57;13.93;;;11.30;;
39196;SDS011;42889;51.112;13.772;2022-08-19T11:36:26;12.20;;;10.40;;
39196;SDS011;42889;51.112;13.772;2022-08-19T11:38:53;13.38;;;11.38;;
39196;SDS011;42889;51.112;13.772;2022-08-19T11:41:20;12.35;;;10.80;;
39196;SDS011;42889;51.112;13.772;2022-08-19T11:43:50;12.82;;;10.30;;
39196;SDS011;42889;51.112;13.772;2022-08-19T11:48:46;11.73;;;10.52;;
39196;SDS011;42889;51.112;13.772;2022-08-19T11:51:15;14.48;;;11.82;;
39196;SDS011;42889;51.112;13.772;2022-08-19T11:53:45;12.63;;;11.25;;
39196;SDS011;42889;51.112;13.772;2022-08-19T11:56:12;15.18;;;11.85;;
39196;SDS011;42889;51.112;13.772;2022-08-19T11:58:39;13.55;;;12.15;;
39196;SDS011;42889;51.112;13.772;2022-08-19T12:01:10;15.45;;;12.07;;
39196;SDS011;42889;51.112;13.772;2022-08-19T12:03:44;14.50;;;11.80;;
39196;SDS011;42889;51.112;13.772;2022-08-19T12:06:14;13.82;;;12.23;;
39196;SDS011;42889;51.112;13.772;2022-08-19T12:08:43;19.63;;;14.98;;
39196;SDS011;42889;51.112;13.772;2022-08-19T12:11:11;19.02;;;15.48;;
39196;SDS011;42889;51.112;13.772;2022-08-19T12:13:42;17.73;;;15.15;;
39196;SDS011;42889;51.112;13.772;2022-08-19T12:16:13;19.48;;;16.00;;
39196;SDS011;42889;51.112;13.772;2022-08-19T12:18:42;21.52;;;16.48;;
39196;SDS011;42889;51.112;13.772;2022-08-19T12:21:12;25.55;;;19.52;;
39196;SDS011;42889;51.112;13.772;2022-08-19T12:23:40;29.25;;;21.08;;
39196;SDS011;42889;51.112;13.772;2022-08-19T12:26:08;28.27;;;20.73;;
39196;SDS011;42889;51.112;13.772;2022-08-19T12:28:36;28.88;;;22.55;;
39196;SDS011;42889;51.112;13.772;2022-08-19T12:31:03;28.83;;;21.77;;
39196;SDS011;42889;51.112;13.772;2022-08-19T12:33:30;29.92;;;21.45;;
39196;SDS011;42889;51.112;13.772;2022-08-19T12:36:02;28.90;;;21.90;;
39196;SDS011;42889;51.112;13.772;2022-08-19T12:38:31;26.95;;;20.10;;
39196;SDS011;42889;51.112;13.772;2022-08-19T12:41:00;28.67;;;20.33;;
39196;SDS011;42889;51.112;13.772;2022-08-19T12:43:29;27.63;;;20.55;;
39196;SDS011;42889;51.112;13.772;2022-08-19T12:45:56;27.55;;;20.02;;
39196;SDS011;42889;51.112;13.772;2022-08-19T12:48:23;24.88;;;18.85;;
39196;SDS011;42889;51.112;13.772;2022-08-19T12:51:00;23.55;;;19.05;;
39196;SDS011;42889;51.112;13.772;2022-08-19T12:53:32;25.52;;;17.17;;
39196;SDS011;42889;51.112;13.772;2022-08-19T12:55:59;22.77;;;17.08;;
39196;SDS011;42889;51.112;13.772;2022-08-19T12:58:27;21.42;;;17.25;;
39196;SDS011;42889;51.112;13.772;2022-08-19T13:00:55;20.48;;;15.93;;
39196;SDS011;42889;51.112;13.772;2022-08-19T13:03:21;22.92;;;17.58;;
39196;SDS011;42889;51.112;13.772;2022-08-19T13:05:55;20.75;;;16.52;;
39196;SDS011;42889;51.112;13.772;2022-08-19T13:08:22;23.95;;;16.52;;
39196;SDS011;42889;51.112;13.772;2022-08-19T13:10:49;21.00;;;16.85;;
39196;SDS011;42889;51.112;13.772;2022-08-19T13:13:16;22.35;;;17.17;;
39196;SDS011;42889;51.112;13.772;2022-08-19T13:15:43;19.52;;;16.02;;
39196;SDS011;42889;51.112;13.772;2022-08-19T13:18:11;21.60;;;16.30;;
39196;SDS011;42889;51.112;13.772;2022-08-19T13:20:38;23.83;;;16.58;;
39196;SDS011;42889;51.112;13.772;2022-08-19T13:23:18;22.48;;;16.02;;
39196;SDS011;42889;51.112;13.772;2022-08-19T13:25:44;19.65;;;15.50;;
39196;SDS011;42889;51.112;13.772;2022-08-19T13:28:13;23.48;;;16.70;;
39196;SDS011;42889;51.112;13.772;2022-08-19T13:30:41;20.50;;;15.98;;
39196;SDS011;42889;51.112;13.772;2022-08-19T13:33:26;22.08;;;16.30;;
39196;SDS011;42889;51.112;13.772;2022-08-19T13:35:58;19.17;;;15.68;;
39196;SDS011;42889;51.112;13.772;2022-08-19T13:38:26;19.02;;;15.60;;
39196;SDS011;42889;51.112;13.772;2022-08-19T13:40:54;19.42;;;15.48;;
39196;SDS011;42889;51.112;13.772;2022-08-19T13:43:22;19.80;;;14.85;;
39196;SDS011;42889;51.112;13.772;2022-08-19T13:45:52;19.70;;;15.82;;
39196;SDS011;42889;51.112;13.772;2022-08-19T13:48:23;19.88;;;16.17;;
39196;SDS011;42889;51.112;13.772;2022-08-19T13:50:51;20.85;;;16.33;;
39196;SDS011;42889;51.112;13.772;2022-08-19T13:53:17;23.52;;;17.63;;
39196;SDS011;42889;51.112;13.772;2022-08-19T13:55:44;23.05;;;17.88;;
39196;SDS011;42889;51.112;13.772;2022-08-19T13:58:11;24.05;;;19.13;;
39196;SDS011;42889;51.112;13.772;2022-08-19T14:00:40;24.20;;;18.42;;
39196;SDS011;42889;51.112;13.772;2022-08-19T14:03:10;23.80;;;19.08;;
39196;SDS011;42889;51.112;13.772;2022-08-19T14:05:37;24.92;;;18.83;;
39196;SDS011;42889;51.112;13.772;2022-08-19T14:08:06;28.48;;;20.65;;
39196;SDS011;42889;51.112;13.772;2022-08-19T14:10:33;27.08;;;20.83;;
39196;SDS011;42889;51.112;13.772;2022-08-19T14:13:00;29.35;;;21.48;;
39196;SDS011;42889;51.112;13.772;2022-08-19T14:15:28;29.33;;;22.35;;
39196;SDS011;42889;51.112;13.772;2022-08-19T14:17:56;25.30;;;20.45;;
39196;SDS011;42889;51.112;13.772;2022-08-19T14:20:23;26.08;;;20.23;;
39196;SDS011;42889;51.112;13.772;2022-08-19T14:22:51;28.42;;;21.85;;
39196;SDS011;42889;51.112;13.772;2022-08-19T14:25:20;31.65;;;22.42;;
39196;SDS011;42889;51.112;13.772;2022-08-19T14:27:48;30.83;;;23.77;;
39196;SDS011;42889;51.112;13.772;2022-08-19T14:30:17;31.42;;;23.38;;
39196;SDS011;42889;51.112;13.772;2022-08-19T14:32:47;30.95;;;23.15;;
39196;SDS011;42889;51.112;13.772;2022-08-19T14:35:14;30.40;;;22.67;;
39196;SDS011;42889;51.112;13.772;2022-08-19T14:37:42;31.23;;;23.45;;
39196;SDS011;42889;51.112;13.772;2022-08-19T14:40:15;29.20;;;23.42;;
39196;SDS011;42889;51.112;13.772;2022-08-19T14:55:02;28.50;;;22.00;;
39196;SDS011;42889;51.112;13.772;2022-08-19T14:58:34;30.63;;;23.60;;
39196;SDS011;42889;51.112;13.772;2022-08-19T15:01:56;33.00;;;22.20;;
39196;SDS011;42889;51.112;13.772;2022-08-19T15:05:16;30.30;;;23.67;;
39196;SDS011;42889;51.112;13.772;2022-08-19T15:08:10;28.10;;;21.45;;
39196;SDS011;42889;51.112;13.772;2022-08-19T15:11:15;28.77;;;22.30;;